createdAt,value
2018-09-04T00:00:03.238Z,17.67
2018-09-04T00:01:03.442Z,17.60
2018-09-04T00:02:03.253Z,17.57
2018-09-04T00:03:03.246Z,17.60
2018-09-04T00:04:03.461Z,17.65
2018-09-04T00:05:03.263Z,17.74
2018-09-04T00:06:03.254Z,17.70
2018-09-04T00:07:03.267Z,17.82
2018-09-04T00:08:03.273Z,17.83
2018-09-04T00:09:03.277Z,17.89
2018-09-04T00:10:03.274Z,17.85
2018-09-04T00:11:03.270Z,17.85
2018-09-04T00:12:03.280Z,17.82
2018-09-04T00:13:03.476Z,17.82
2018-09-04T00:14:03.276Z,17.74
2018-09-04T00:15:03.287Z,17.65
2018-09-04T00:16:03.282Z,17.63
2018-09-04T00:17:03.312Z,17.54
2018-09-04T00:18:03.297Z,17.52
2018-09-04T00:19:03.290Z,17.52
2018-09-04T00:20:03.292Z,17.51
2018-09-04T00:21:03.297Z,17.39
2018-09-04T00:22:03.296Z,17.44
2018-09-04T00:23:03.500Z,17.38
2018-09-04T00:24:03.504Z,17.36
2018-09-04T00:25:03.317Z,17.29
2018-09-04T00:26:03.306Z,17.22
2018-09-04T00:27:03.308Z,17.22
2018-09-04T00:28:03.313Z,17.23
2018-09-04T00:29:03.328Z,17.24
2018-09-04T00:30:03.318Z,17.30
2018-09-04T00:31:03.325Z,17.26
2018-09-04T00:32:03.333Z,17.27
2018-09-04T00:33:03.339Z,17.38
2018-09-04T00:34:03.531Z,17.36
2018-09-04T00:35:03.547Z,17.33
2018-09-04T00:36:03.348Z,17.38
2018-09-04T00:37:03.336Z,17.30
2018-09-04T00:38:03.352Z,17.24
2018-09-04T00:39:03.341Z,17.20
2018-09-04T00:40:03.354Z,17.20
2018-09-04T00:41:03.343Z,17.14
2018-09-04T00:42:03.353Z,17.11
2018-09-04T00:43:03.564Z,16.99
2018-09-04T00:44:03.351Z,17.04
2018-09-04T00:45:03.367Z,17.02
2018-09-04T00:46:03.557Z,17.01
2018-09-04T00:47:03.355Z,16.96
2018-09-04T00:48:03.359Z,16.96
2018-09-04T00:49:03.566Z,16.91
2018-09-04T00:50:03.381Z,17.01
2018-09-04T00:51:03.379Z,17.06
2018-09-04T00:52:03.379Z,17.11
2018-09-04T00:53:03.370Z,17.06
2018-09-04T00:54:03.386Z,17.08
2018-09-04T00:55:03.385Z,17.05
2018-09-04T00:56:03.380Z,17.05
2018-09-04T00:57:03.394Z,17.08
2018-09-04T00:58:03.382Z,17.08
2018-09-04T00:59:03.477Z,17.04
2018-09-04T01:00:03.387Z,17.11
2018-09-04T01:01:03.614Z,17.11
2018-09-04T01:02:03.591Z,17.12
2018-09-04T01:03:03.595Z,17.09
2018-09-04T01:04:03.395Z,17.06
2018-09-04T01:05:03.400Z,17.06
2018-09-04T01:06:03.398Z,17.02
2018-09-04T01:07:03.412Z,16.96
2018-09-04T01:08:03.403Z,16.93
2018-09-04T01:09:03.419Z,16.87
2018-09-04T01:10:03.422Z,16.93
2018-09-04T01:11:03.612Z,17.02
2018-09-04T01:12:03.617Z,16.99
2018-09-04T01:13:03.415Z,16.96
2018-09-04T01:14:03.453Z,17.01
2018-09-04T01:15:03.445Z,16.99
2018-09-04T01:16:03.421Z,17.04
2018-09-04T01:17:03.421Z,17.09
2018-09-04T01:18:03.636Z,17.09
2018-09-04T01:19:03.431Z,17.11
2018-09-04T01:20:03.446Z,17.15
2018-09-04T01:21:03.429Z,17.20
2018-09-04T01:22:03.431Z,17.22
2018-09-04T01:23:03.443Z,17.20
2018-09-04T01:24:03.449Z,17.20
2018-09-04T01:25:03.440Z,17.12
2018-09-04T01:26:03.464Z,17.12
2018-09-04T01:27:03.659Z,17.01
2018-09-04T01:28:03.457Z,17.04
2018-09-04T01:29:03.446Z,16.97
2018-09-04T01:30:03.448Z,16.93
2018-09-04T01:31:03.451Z,16.87
2018-09-04T01:32:03.469Z,16.91
2018-09-04T01:33:03.472Z,16.90
2018-09-04T01:34:03.472Z,16.84
2018-09-04T01:35:03.458Z,16.87
2018-09-04T01:36:03.464Z,16.89
2018-09-04T01:37:03.464Z,16.87
2018-09-04T01:38:03.467Z,16.86
2018-09-04T01:39:03.469Z,16.75
2018-09-04T01:40:03.469Z,16.79
2018-09-04T01:41:03.483Z,16.75
2018-09-04T01:42:03.480Z,16.71
2018-09-04T01:43:03.480Z,16.57
2018-09-04T01:44:03.483Z,16.50
2018-09-04T01:45:03.483Z,16.46
2018-09-04T01:46:03.483Z,16.43
2018-09-04T01:47:03.488Z,16.46
2018-09-04T01:48:03.489Z,16.41
2018-09-04T01:49:03.504Z,16.46
2018-09-04T01:50:03.502Z,16.39
2018-09-04T01:51:03.492Z,16.36
2018-09-04T01:52:03.504Z,16.35
2018-09-04T01:53:03.506Z,16.38
2018-09-04T01:54:03.497Z,16.35
2018-09-04T01:55:03.516Z,16.32
2018-09-04T01:56:03.504Z,16.31
2018-09-04T01:57:03.502Z,16.43
2018-09-04T01:58:03.520Z,16.42
2018-09-04T01:59:03.506Z,16.42
2018-09-04T02:00:03.520Z,16.38
2018-09-04T02:01:03.510Z,16.46
2018-09-04T02:02:03.512Z,16.38
2018-09-04T02:03:03.528Z,16.42
2018-09-04T02:04:03.520Z,16.56
2018-09-04T02:05:03.531Z,16.43
2018-09-04T02:06:03.534Z,16.53
2018-09-04T02:07:03.544Z,16.54
2018-09-04T02:08:03.524Z,16.54
2018-09-04T02:09:03.542Z,16.47
2018-09-04T02:10:03.731Z,16.47
2018-09-04T02:11:03.528Z,16.38
2018-09-04T02:12:03.533Z,16.42
2018-09-04T02:13:03.751Z,16.53
2018-09-04T02:14:03.536Z,16.39
2018-09-04T02:15:03.536Z,16.38
2018-09-04T02:16:03.554Z,16.43
2018-09-04T02:17:03.556Z,16.42
2018-09-04T02:18:03.539Z,16.39
2018-09-04T02:19:03.560Z,16.47
2018-09-04T02:20:03.547Z,16.46
2018-09-04T02:21:03.548Z,16.47
2018-09-04T02:22:03.548Z,16.57
2018-09-04T02:23:03.564Z,16.65
2018-09-04T02:24:03.557Z,16.68
2018-09-04T02:25:03.567Z,16.66
2018-09-04T02:26:03.569Z,16.79
2018-09-04T02:27:03.562Z,16.72
2018-09-04T02:28:03.561Z,16.78
2018-09-04T02:29:03.570Z,16.66
2018-09-04T02:30:03.565Z,16.65
2018-09-04T02:31:03.570Z,16.66
2018-09-04T02:32:03.580Z,16.60
2018-09-04T02:33:03.602Z,16.51
2018-09-04T02:34:03.570Z,16.51
2018-09-04T02:35:03.801Z,16.42
2018-09-04T02:36:03.600Z,16.32
2018-09-04T02:37:03.576Z,16.32
2018-09-04T02:38:03.794Z,16.42
2018-09-04T02:39:03.580Z,16.41
2018-09-04T02:40:03.609Z,16.42
2018-09-04T02:41:03.594Z,16.31
2018-09-04T02:42:03.593Z,16.39
2018-09-04T02:43:03.585Z,16.35
2018-09-04T02:44:03.589Z,16.42
2018-09-04T02:45:03.605Z,16.42
2018-09-04T02:46:03.597Z,16.35
2018-09-04T02:47:03.795Z,16.39
2018-09-04T02:48:03.804Z,16.46
2018-09-04T02:49:03.614Z,16.43
2018-09-04T02:50:03.613Z,16.54
2018-09-04T02:51:03.603Z,16.54
2018-09-04T02:52:03.806Z,16.60
2018-09-04T02:53:03.606Z,16.60
2018-09-04T02:54:03.821Z,16.64
2018-09-04T02:55:03.621Z,16.58
2018-09-04T02:56:03.623Z,16.60
2018-09-04T02:57:03.611Z,16.64
2018-09-04T02:58:03.621Z,16.60
2018-09-04T02:59:03.626Z,16.57
2018-09-04T03:00:03.615Z,16.58
2018-09-04T03:01:03.835Z,16.74
2018-09-04T03:02:03.622Z,16.57
2018-09-04T03:03:03.824Z,16.68
2018-09-04T03:04:03.838Z,16.69
2018-09-04T03:05:03.641Z,16.72
2018-09-04T03:06:03.636Z,16.76
2018-09-04T03:07:03.655Z,16.72
2018-09-04T03:08:03.641Z,16.74
2018-09-04T03:09:03.637Z,16.76
2018-09-04T03:10:03.635Z,16.76
2018-09-04T03:11:03.667Z,16.76
2018-09-04T03:12:03.661Z,16.76
2018-09-04T03:13:03.859Z,16.76
2018-09-04T03:14:03.644Z,16.75
2018-09-04T03:15:03.654Z,16.71
2018-09-04T03:16:03.643Z,16.84
2018-09-04T03:17:03.852Z,16.89
2018-09-04T03:18:03.651Z,16.84
2018-09-04T03:19:03.666Z,16.87
2018-09-04T03:20:03.652Z,16.89
2018-09-04T03:21:03.858Z,16.87
2018-09-04T03:22:03.868Z,16.84
2018-09-04T03:23:03.919Z,16.87
2018-09-04T03:24:03.863Z,16.84
2018-09-04T03:25:03.662Z,16.89
2018-09-04T03:26:03.679Z,16.97
2018-09-04T03:27:03.675Z,16.91
2018-09-04T03:28:03.872Z,16.99
2018-09-04T03:29:03.668Z,17.04
2018-09-04T03:30:03.688Z,16.99
2018-09-04T03:31:03.672Z,17.04
2018-09-04T03:32:03.877Z,17.12
2018-09-04T03:33:03.690Z,17.11
2018-09-04T03:34:03.895Z,17.09
2018-09-04T03:35:03.702Z,17.11
2018-09-04T03:36:03.708Z,17.23
2018-09-04T03:37:03.709Z,17.16
2018-09-04T03:38:03.699Z,17.22
2018-09-04T03:39:03.699Z,17.24
2018-09-04T03:40:03.721Z,17.33
2018-09-04T03:41:03.896Z,17.34
2018-09-04T03:42:03.897Z,17.41
2018-09-04T03:43:03.720Z,17.41
2018-09-04T03:44:03.913Z,17.39
2018-09-04T03:45:03.704Z,17.41
2018-09-04T03:46:03.702Z,17.39
2018-09-04T03:47:03.704Z,17.42
2018-09-04T03:48:03.705Z,17.45
2018-09-04T03:49:03.723Z,17.56
2018-09-04T03:50:03.722Z,17.38
2018-09-04T03:51:03.712Z,17.41
2018-09-04T03:52:03.718Z,17.38
2018-09-04T03:53:03.920Z,17.41
2018-09-04T03:54:03.722Z,17.36
2018-09-04T03:55:03.722Z,17.38
2018-09-04T03:56:03.926Z,17.41
2018-09-04T03:57:03.930Z,17.41
2018-09-04T03:58:03.935Z,17.39
2018-09-04T03:59:03.733Z,17.42
2018-09-04T04:00:03.748Z,17.42
2018-09-04T04:01:03.736Z,17.36
2018-09-04T04:02:03.740Z,17.24
2018-09-04T04:03:03.747Z,17.24
2018-09-04T04:04:03.741Z,17.20
2018-09-04T04:05:03.744Z,17.06
2018-09-04T04:06:03.746Z,17.11
2018-09-04T04:07:03.951Z,17.02
2018-09-04T04:08:03.758Z,17.01
2018-09-04T04:09:03.794Z,16.91
2018-09-04T04:10:03.767Z,16.81
2018-09-04T04:11:03.756Z,16.71
2018-09-04T04:12:04.153Z,16.78
2018-09-04T04:13:03.788Z,16.74
2018-09-04T04:14:03.792Z,16.66
2018-09-04T04:15:03.796Z,16.56
2018-09-04T04:16:03.800Z,16.61
2018-09-04T04:17:03.773Z,16.54
2018-09-04T04:18:03.776Z,16.56
2018-09-04T04:19:03.773Z,16.57
2018-09-04T04:20:03.779Z,16.53
2018-09-04T04:21:03.782Z,16.57
2018-09-04T04:22:03.789Z,16.47
2018-09-04T04:23:03.783Z,16.38
2018-09-04T04:24:03.928Z,16.39
2018-09-04T04:25:03.785Z,16.49
2018-09-04T04:26:03.795Z,16.35
2018-09-04T04:27:03.791Z,16.32
2018-09-04T04:28:03.803Z,16.43
2018-09-04T04:29:04.003Z,16.32
2018-09-04T04:30:03.795Z,16.33
2018-09-04T04:31:03.795Z,16.29
2018-09-04T04:32:03.797Z,16.28
2018-09-04T04:33:04.064Z,16.33
2018-09-04T04:34:03.816Z,16.17
2018-09-04T04:35:03.800Z,16.26
2018-09-04T04:36:04.003Z,16.28
2018-09-04T04:37:03.807Z,16.20
2018-09-04T04:38:03.806Z,16.23
2018-09-04T04:39:04.020Z,16.20
2018-09-04T04:40:03.917Z,16.21
2018-09-04T04:41:03.811Z,16.24
2018-09-04T04:42:03.815Z,16.20
2018-09-04T04:43:03.814Z,16.21
2018-09-04T04:44:03.816Z,16.21
2018-09-04T04:45:03.818Z,16.08
2018-09-04T04:46:03.820Z,15.98
2018-09-04T04:47:03.836Z,16.01
2018-09-04T04:48:04.106Z,15.97
2018-09-04T04:49:03.824Z,15.97
2018-09-04T04:50:03.853Z,15.90
2018-09-04T04:51:03.841Z,15.86
2018-09-04T04:52:04.036Z,15.88
2018-09-04T04:53:04.036Z,15.90
2018-09-04T04:54:03.832Z,15.84
2018-09-04T04:55:04.070Z,15.88
2018-09-04T04:56:03.862Z,15.84
2018-09-04T04:57:03.838Z,15.83
2018-09-04T04:58:03.850Z,15.86
2018-09-04T04:59:03.842Z,15.83
2018-09-04T05:00:04.046Z,15.82
2018-09-04T05:01:03.847Z,15.88
2018-09-04T05:02:04.047Z,15.88
2018-09-04T05:03:03.861Z,15.91
2018-09-04T05:04:04.059Z,15.98
2018-09-04T05:05:03.866Z,15.90
2018-09-04T05:06:03.853Z,15.91
2018-09-04T05:07:03.852Z,15.97
2018-09-04T05:08:03.853Z,15.90
2018-09-04T05:09:04.058Z,15.95
2018-09-04T05:10:03.855Z,15.90
2018-09-04T05:11:03.999Z,15.90
2018-09-04T05:12:03.862Z,15.91
2018-09-04T05:13:03.888Z,15.94
2018-09-04T05:14:03.878Z,15.86
2018-09-04T05:15:03.864Z,15.92
2018-09-04T05:16:04.077Z,15.90
2018-09-04T05:17:03.869Z,15.92
2018-09-04T05:18:03.921Z,15.94
2018-09-04T05:19:04.072Z,15.88
2018-09-04T05:20:03.874Z,15.94
2018-09-04T05:21:03.874Z,15.88
2018-09-04T05:22:03.886Z,15.92
2018-09-04T05:23:03.888Z,15.86
2018-09-04T05:24:03.899Z,15.90
2018-09-04T05:25:04.081Z,15.88
2018-09-04T05:26:03.900Z,15.92
2018-09-04T05:27:03.903Z,15.94
2018-09-04T05:28:04.095Z,15.92
2018-09-04T05:29:03.884Z,15.90
2018-09-04T05:30:03.886Z,15.86
2018-09-04T05:31:03.886Z,16.01
2018-09-04T05:32:03.898Z,16.00
2018-09-04T05:33:04.096Z,16.02
2018-09-04T05:34:04.094Z,15.98
2018-09-04T05:35:03.890Z,15.97
2018-09-04T05:36:03.910Z,16.15
2018-09-04T05:37:03.910Z,16.09
2018-09-04T05:38:03.906Z,16.13
2018-09-04T05:39:03.899Z,16.09
2018-09-04T05:40:03.901Z,16.16
2018-09-04T05:41:03.902Z,16.17
2018-09-04T05:42:03.899Z,16.28
2018-09-04T05:43:04.117Z,16.24
2018-09-04T05:44:03.906Z,16.31
2018-09-04T05:45:03.918Z,16.35
2018-09-04T05:46:03.913Z,16.33
2018-09-04T05:47:04.112Z,16.33
2018-09-04T05:48:03.914Z,16.36
2018-09-04T05:49:03.930Z,16.26
2018-09-04T05:50:04.127Z,16.39
2018-09-04T05:51:03.916Z,16.41
2018-09-04T05:52:03.937Z,16.41
2018-09-04T05:53:03.930Z,16.46
2018-09-04T05:54:03.918Z,16.43
2018-09-04T05:55:03.976Z,16.38
2018-09-04T05:56:03.923Z,16.42
2018-09-04T05:57:03.925Z,16.41
2018-09-04T05:58:04.127Z,16.39
2018-09-04T05:59:04.133Z,16.50
2018-09-04T06:00:03.944Z,16.50
2018-09-04T06:01:03.929Z,16.57
2018-09-04T06:02:03.935Z,16.54
2018-09-04T06:03:03.934Z,16.56
2018-09-04T06:04:03.934Z,16.57
2018-09-04T06:05:04.148Z,16.65
2018-09-04T06:06:03.947Z,16.60
2018-09-04T06:07:03.950Z,16.68
2018-09-04T06:08:03.938Z,16.76
2018-09-04T06:09:03.941Z,16.68
2018-09-04T06:10:03.944Z,16.83
2018-09-04T06:11:03.945Z,16.90
2018-09-04T06:12:03.962Z,16.94
2018-09-04T06:13:03.972Z,16.94
2018-09-04T06:14:04.151Z,17.01
2018-09-04T06:15:04.169Z,16.99
2018-09-04T06:16:03.953Z,17.01
2018-09-04T06:17:03.955Z,17.05
2018-09-04T06:18:04.163Z,17.15
2018-09-04T06:19:04.162Z,17.19
2018-09-04T06:20:04.012Z,17.20
2018-09-04T06:21:03.961Z,17.26
2018-09-04T06:22:03.978Z,17.38
2018-09-04T06:23:04.180Z,17.42
2018-09-04T06:24:03.981Z,17.36
2018-09-04T06:25:03.978Z,17.46
2018-09-04T06:26:04.195Z,17.56
2018-09-04T06:27:03.988Z,17.54
2018-09-04T06:28:03.985Z,17.63
2018-09-04T06:29:03.979Z,17.54
2018-09-04T06:30:03.977Z,17.63
2018-09-04T06:31:03.992Z,17.68
2018-09-04T06:32:03.993Z,17.67
2018-09-04T06:33:04.189Z,17.65
2018-09-04T06:34:04.008Z,17.74
2018-09-04T06:35:04.002Z,17.80
2018-09-04T06:36:03.993Z,17.82
2018-09-04T06:37:04.200Z,17.79
2018-09-04T06:38:04.007Z,17.82
2018-09-04T06:39:03.996Z,17.90
2018-09-04T06:40:04.202Z,17.85
2018-09-04T06:41:04.009Z,17.90
2018-09-04T06:42:04.001Z,18.00
2018-09-04T06:43:04.019Z,18.01
2018-09-04T06:44:04.008Z,18.05
2018-09-04T06:45:04.025Z,18.13
2018-09-04T06:46:04.026Z,18.08
2018-09-04T06:47:04.027Z,18.18
2018-09-04T06:48:04.020Z,18.15
2018-09-04T06:49:04.018Z,18.26
2018-09-04T06:50:04.222Z,18.18
2018-09-04T06:51:04.023Z,18.37
2018-09-04T06:52:04.027Z,18.26
2018-09-04T06:53:04.028Z,18.41
2018-09-04T06:54:04.029Z,18.41
2018-09-04T06:55:04.056Z,18.41
2018-09-04T06:56:04.265Z,18.49
2018-09-04T06:57:04.036Z,18.43
2018-09-04T06:58:04.049Z,18.44
2018-09-04T06:59:04.244Z,18.60
2018-09-04T07:00:04.044Z,18.55
2018-09-04T07:01:04.260Z,18.60
2018-09-04T07:02:04.061Z,18.68
2018-09-04T07:03:04.254Z,18.62
2018-09-04T07:04:04.255Z,18.74
2018-09-04T07:05:04.261Z,18.77
2018-09-04T07:06:04.063Z,18.81
2018-09-04T07:07:04.075Z,18.83
2018-09-04T07:08:04.083Z,18.88
2018-09-04T07:09:04.082Z,18.99
2018-09-04T07:10:04.080Z,18.90
2018-09-04T07:11:04.073Z,18.92
2018-09-04T07:12:04.096Z,18.98
2018-09-04T07:13:04.293Z,19.09
2018-09-04T07:14:04.076Z,19.02
2018-09-04T07:15:04.157Z,19.00
2018-09-04T07:16:04.083Z,19.19
2018-09-04T07:17:04.164Z,19.11
2018-09-04T07:18:04.092Z,19.27
2018-09-04T07:19:04.105Z,19.24
2018-09-04T07:20:04.098Z,19.27
2018-09-04T07:21:04.109Z,19.36
2018-09-04T07:22:04.114Z,19.39
2018-09-04T07:23:04.112Z,19.39
2018-09-04T07:24:04.313Z,19.37
2018-09-04T07:25:04.120Z,19.54
2018-09-04T07:26:04.121Z,19.44
2018-09-04T07:27:04.142Z,19.51
2018-09-04T07:28:04.331Z,19.51
2018-09-04T07:29:04.130Z,19.59
2018-09-04T07:30:04.122Z,19.62
2018-09-04T07:31:04.125Z,19.66
2018-09-04T07:32:04.130Z,19.76
2018-09-04T07:33:04.128Z,19.63
2018-09-04T07:34:04.131Z,19.66
2018-09-04T07:35:04.337Z,19.73
2018-09-04T07:36:04.149Z,19.70
2018-09-04T07:37:04.157Z,19.67
2018-09-04T07:38:04.159Z,19.67
2018-09-04T07:39:04.161Z,19.59
2018-09-04T07:40:04.152Z,19.58
2018-09-04T07:41:04.156Z,19.64
2018-09-04T07:42:04.313Z,19.62
2018-09-04T07:43:04.362Z,19.66
2018-09-04T07:44:04.375Z,19.58
2018-09-04T07:45:04.178Z,19.58
2018-09-04T07:46:04.189Z,19.64
2018-09-04T07:47:04.374Z,19.59
2018-09-04T07:48:04.186Z,19.62
2018-09-04T07:49:04.207Z,19.70
2018-09-04T07:50:04.383Z,19.56
2018-09-04T07:51:04.210Z,19.69
2018-09-04T07:52:04.201Z,19.71
2018-09-04T07:53:04.216Z,19.73
2018-09-04T07:54:04.407Z,19.76
2018-09-04T07:55:04.217Z,19.76
2018-09-04T07:56:04.202Z,19.85
2018-09-04T07:57:04.218Z,19.95
2018-09-04T07:58:04.216Z,20.13
2018-09-04T07:59:04.219Z,20.24
2018-09-04T08:00:04.212Z,20.21
2018-09-04T08:01:04.252Z,20.25
2018-09-04T08:02:04.225Z,20.25
2018-09-04T08:03:04.435Z,20.21
2018-09-04T08:04:04.249Z,20.10
2018-09-04T08:05:04.225Z,20.21
2018-09-04T08:06:04.240Z,20.06
2018-09-04T08:07:04.258Z,20.19
2018-09-04T08:08:04.238Z,20.24
2018-09-04T08:09:04.253Z,20.21
2018-09-04T08:10:04.285Z,20.28
2018-09-04T08:11:04.246Z,20.32
2018-09-04T08:12:04.448Z,20.29
2018-09-04T08:13:04.262Z,20.31
2018-09-04T08:14:04.466Z,20.34
2018-09-04T08:15:04.257Z,20.31
2018-09-04T08:16:04.258Z,20.36
2018-09-04T08:17:04.263Z,20.31
2018-09-04T08:18:04.264Z,20.31
2018-09-04T08:19:04.267Z,20.32
2018-09-04T08:20:04.271Z,20.32
2018-09-04T08:21:04.281Z,20.43
2018-09-04T08:22:04.279Z,20.52
2018-09-04T08:23:04.285Z,20.59
2018-09-04T08:24:04.286Z,20.63
2018-09-04T08:25:04.505Z,20.70
2018-09-04T08:26:04.557Z,20.69
2018-09-04T08:27:04.298Z,20.81
2018-09-04T08:28:04.302Z,20.88
2018-09-04T08:29:04.310Z,21.02
2018-09-04T08:30:04.319Z,21.06
2018-09-04T08:31:04.312Z,21.24
2018-09-04T08:32:04.313Z,21.33
2018-09-04T08:33:04.361Z,21.46
2018-09-04T08:34:04.521Z,21.43
2018-09-04T08:35:04.324Z,21.42
2018-09-04T08:36:04.540Z,21.52
2018-09-04T08:37:04.356Z,21.61
2018-09-04T08:38:04.351Z,21.58
2018-09-04T08:39:04.350Z,21.60
2018-09-04T08:40:04.388Z,21.67
2018-09-04T08:41:04.350Z,21.62
2018-09-04T08:42:04.552Z,21.70
2018-09-04T08:43:04.356Z,21.75
2018-09-04T08:44:04.558Z,21.83
2018-09-04T08:45:04.377Z,21.93
2018-09-04T08:46:04.378Z,22.04
2018-09-04T08:47:04.405Z,22.11
2018-09-04T08:48:04.383Z,22.00
2018-09-04T08:49:04.380Z,22.07
2018-09-04T08:50:04.392Z,22.13
2018-09-04T08:51:04.397Z,22.29
2018-09-04T08:52:04.400Z,22.38
2018-09-04T08:53:04.393Z,22.44
2018-09-04T08:54:04.398Z,22.60
2018-09-04T08:55:04.401Z,22.68
2018-09-04T08:56:04.622Z,22.63
2018-09-04T08:57:04.427Z,22.73
2018-09-04T08:58:04.412Z,22.84
2018-09-04T08:59:04.430Z,22.93
2018-09-04T09:00:04.421Z,22.98
2018-09-04T09:01:04.630Z,23.17
2018-09-04T09:02:04.439Z,23.36
2018-09-04T09:03:04.431Z,23.48
2018-09-04T09:04:04.442Z,23.84
2018-09-04T09:05:04.452Z,23.78
2018-09-04T09:06:04.447Z,24.02
2018-09-04T09:07:04.451Z,23.98
2018-09-04T09:08:04.452Z,23.80
2018-09-04T09:09:04.471Z,23.65
2018-09-04T09:10:04.522Z,23.62
2018-09-04T09:11:04.481Z,23.43
2018-09-04T09:12:04.484Z,23.06
2018-09-04T09:13:04.690Z,22.83
2018-09-04T09:14:04.479Z,22.66
2018-09-04T09:15:04.491Z,22.60
2018-09-04T09:16:04.500Z,22.48
2018-09-04T09:17:04.505Z,22.43
2018-09-04T09:18:04.507Z,22.33
2018-09-04T09:19:04.508Z,22.33
2018-09-04T09:20:04.503Z,22.33
2018-09-04T09:21:04.508Z,22.28
2018-09-04T09:22:04.713Z,22.25
2018-09-04T09:23:04.531Z,22.22
2018-09-04T09:24:04.521Z,22.33
2018-09-04T09:25:04.521Z,22.28
2018-09-04T09:26:04.546Z,22.32
2018-09-04T09:27:04.530Z,22.23
2018-09-04T09:28:04.543Z,22.30
2018-09-04T09:29:04.556Z,22.25
2018-09-04T09:30:04.568Z,22.26
2018-09-04T09:31:04.547Z,22.25
2018-09-04T09:32:04.558Z,22.23
2018-09-04T09:33:04.574Z,22.28
2018-09-04T09:34:04.583Z,22.38
2018-09-04T09:35:04.809Z,22.39
2018-09-04T09:36:04.575Z,22.41
2018-09-04T09:37:04.663Z,22.32
2018-09-04T09:38:04.776Z,22.32
2018-09-04T09:39:04.578Z,22.32
2018-09-04T09:40:04.594Z,22.25
2018-09-04T09:41:04.606Z,22.25
2018-09-04T09:42:04.587Z,22.22
2018-09-04T09:43:04.794Z,22.23
2018-09-04T09:44:04.606Z,22.28
2018-09-04T09:45:04.611Z,22.25
2018-09-04T09:46:04.612Z,22.25
2018-09-04T09:47:04.606Z,22.23
2018-09-04T09:48:04.686Z,22.32
2018-09-04T09:49:04.637Z,22.32
2018-09-04T09:50:04.834Z,22.33
2018-09-04T09:51:04.620Z,22.33
2018-09-04T09:52:04.864Z,22.33
2018-09-04T09:53:04.726Z,22.44
2018-09-04T09:54:04.691Z,22.41
2018-09-04T09:55:04.672Z,22.43
2018-09-04T09:56:04.664Z,22.47
2018-09-04T09:57:04.854Z,22.43
2018-09-04T09:58:04.665Z,22.57
2018-09-04T09:59:04.658Z,22.59
2018-09-04T10:00:04.893Z,22.54
2018-09-04T10:01:04.664Z,22.55
2018-09-04T10:02:04.667Z,22.57
2018-09-04T10:03:04.669Z,22.66
2018-09-04T10:04:04.745Z,22.66
2018-09-04T10:05:04.689Z,22.57
2018-09-04T10:06:04.884Z,22.54
2018-09-04T10:07:04.699Z,22.65
2018-09-04T10:08:04.961Z,22.57
2018-09-04T10:09:04.696Z,22.65
2018-09-04T10:10:04.710Z,22.55
2018-09-04T10:11:04.713Z,22.54
2018-09-04T10:12:04.720Z,22.51
2018-09-04T10:13:04.735Z,22.44
2018-09-04T10:14:04.711Z,22.50
2018-09-04T10:15:04.742Z,22.43
2018-09-04T10:16:04.722Z,22.41
2018-09-04T10:17:04.729Z,22.57
2018-09-04T10:18:04.729Z,22.57
2018-09-04T10:19:04.949Z,22.60
2018-09-04T10:20:04.819Z,22.65
2018-09-04T10:21:04.746Z,22.55
2018-09-04T10:22:04.747Z,22.63
2018-09-04T10:23:04.764Z,22.68
2018-09-04T10:24:04.787Z,22.68
2018-09-04T10:25:04.757Z,22.66
2018-09-04T10:26:04.786Z,22.80
2018-09-04T10:27:04.969Z,22.70
2018-09-04T10:28:04.774Z,22.57
2018-09-04T10:29:04.773Z,22.60
2018-09-04T10:30:04.794Z,22.69
2018-09-04T10:31:05.013Z,22.66
2018-09-04T10:32:04.787Z,22.60
2018-09-04T10:33:04.821Z,22.62
2018-09-04T10:34:04.796Z,22.66
2018-09-04T10:35:04.813Z,22.75
2018-09-04T10:36:04.833Z,22.80
2018-09-04T10:37:05.022Z,22.73
2018-09-04T10:38:05.018Z,22.65
2018-09-04T10:39:04.826Z,22.72
2018-09-04T10:40:05.024Z,22.68
2018-09-04T10:41:04.825Z,22.78
2018-09-04T10:42:04.845Z,22.83
2018-09-04T10:43:04.832Z,22.88
2018-09-04T10:44:04.852Z,22.81
2018-09-04T10:45:05.045Z,22.73
2018-09-04T10:46:04.874Z,22.65
2018-09-04T10:47:04.858Z,22.55
2018-09-04T10:48:05.054Z,22.60
2018-09-04T10:49:04.857Z,22.60
2018-09-04T10:50:05.095Z,22.60
2018-09-04T10:51:04.873Z,22.65
2018-09-04T10:52:04.868Z,22.66
2018-09-04T10:53:05.087Z,22.68
2018-09-04T10:54:04.889Z,22.68
2018-09-04T10:55:04.892Z,22.66
2018-09-04T10:56:05.087Z,22.66
2018-09-04T10:57:05.103Z,22.68
2018-09-04T10:58:05.105Z,22.65
2018-09-04T10:59:05.100Z,22.62
2018-09-04T11:00:04.911Z,22.62
2018-09-04T11:01:05.111Z,22.62
2018-09-04T11:02:04.923Z,22.68
2018-09-04T11:03:04.913Z,22.66
2018-09-04T11:04:05.120Z,22.70
2018-09-04T11:05:05.133Z,22.65
2018-09-04T11:06:04.925Z,22.59
2018-09-04T11:07:04.930Z,22.68
2018-09-04T11:08:04.958Z,22.68
2018-09-04T11:09:05.273Z,22.62
2018-09-04T11:10:04.953Z,22.59
2018-09-04T11:11:04.957Z,22.57
2018-09-04T11:12:04.964Z,22.62
2018-09-04T11:13:04.955Z,22.51
2018-09-04T11:14:05.175Z,22.44
2018-09-04T11:15:04.982Z,22.50
2018-09-04T11:16:04.987Z,22.44
2018-09-04T11:17:04.974Z,22.41
2018-09-04T11:18:05.044Z,22.35
2018-09-04T11:19:04.992Z,22.36
2018-09-04T11:20:04.994Z,22.36
2018-09-04T11:21:04.985Z,22.30
2018-09-04T11:22:04.992Z,22.32
2018-09-04T11:23:05.013Z,22.29
2018-09-04T11:24:05.000Z,22.29
2018-09-04T11:25:05.031Z,22.26
2018-09-04T11:26:05.005Z,22.29
2018-09-04T11:27:05.021Z,22.28
2018-09-04T11:28:05.030Z,22.25
2018-09-04T11:29:05.032Z,22.25
2018-09-04T11:30:05.035Z,22.33
2018-09-04T11:31:05.051Z,22.35
2018-09-04T11:32:05.245Z,22.36
2018-09-04T11:33:05.253Z,22.62
2018-09-04T11:34:05.042Z,22.69
2018-09-04T11:35:05.067Z,22.73
2018-09-04T11:36:05.264Z,22.75
2018-09-04T11:37:05.058Z,22.85
2018-09-04T11:38:05.272Z,22.91
2018-09-04T11:39:05.078Z,22.91
2018-09-04T11:40:05.068Z,23.00
2018-09-04T11:41:05.275Z,23.05
2018-09-04T11:42:05.074Z,23.08
2018-09-04T11:43:05.091Z,23.10
2018-09-04T11:44:05.105Z,23.15
2018-09-04T11:45:05.093Z,23.17
2018-09-04T11:46:05.092Z,23.21
2018-09-04T11:47:05.190Z,23.32
2018-09-04T11:48:05.288Z,23.31
2018-09-04T11:49:05.107Z,23.34
2018-09-04T11:50:05.125Z,23.40
2018-09-04T11:51:05.138Z,23.46
2018-09-04T11:52:05.128Z,23.48
2018-09-04T11:53:05.124Z,23.41
2018-09-04T11:54:05.154Z,23.50
2018-09-04T11:55:05.344Z,23.47
2018-09-04T11:56:05.139Z,23.46
2018-09-04T11:57:05.362Z,23.46
2018-09-04T11:58:05.158Z,23.39
2018-09-04T11:59:05.177Z,23.39
2018-09-04T12:00:05.164Z,23.36
2018-09-04T12:01:05.191Z,23.36
2018-09-04T12:02:05.182Z,23.44
2018-09-04T12:03:05.369Z,23.32
2018-09-04T12:04:05.173Z,23.41
2018-09-04T12:05:05.193Z,23.31
2018-09-04T12:06:05.400Z,23.39
2018-09-04T12:07:05.186Z,23.34
2018-09-04T12:08:05.191Z,23.28
2018-09-04T12:09:05.193Z,23.32
2018-09-04T12:10:05.198Z,23.32
2018-09-04T12:11:05.219Z,23.32
2018-09-04T12:12:05.241Z,23.46
2018-09-04T12:13:05.461Z,23.56
2018-09-04T12:14:05.216Z,23.55
2018-09-04T12:15:05.233Z,23.44
2018-09-04T12:16:05.429Z,23.41
2018-09-04T12:17:05.462Z,23.40
2018-09-04T12:18:05.234Z,23.37
2018-09-04T12:19:05.255Z,23.41
2018-09-04T12:20:05.278Z,23.41
2018-09-04T12:21:05.685Z,23.50
2018-09-04T12:22:05.252Z,23.58
2018-09-04T12:23:05.261Z,23.47
2018-09-04T12:24:05.264Z,23.41
2018-09-04T12:25:05.268Z,23.36
2018-09-04T12:26:05.291Z,23.36
2018-09-04T12:27:05.307Z,23.36
2018-09-04T12:28:05.286Z,23.41
2018-09-04T12:29:05.287Z,23.44
2018-09-04T12:30:05.301Z,23.48
2018-09-04T12:31:05.299Z,23.73
2018-09-04T12:32:05.318Z,23.81
2018-09-04T12:33:05.305Z,23.78
2018-09-04T12:34:05.514Z,24.06
2018-09-04T12:35:05.317Z,24.08
2018-09-04T12:36:05.329Z,24.16
2018-09-04T12:37:05.324Z,24.26
2018-09-04T12:38:05.329Z,24.33
2018-09-04T12:39:05.364Z,24.36
2018-09-04T12:40:05.338Z,24.26
2018-09-04T12:41:05.382Z,24.23
2018-09-04T12:42:05.371Z,24.24
2018-09-04T12:43:05.367Z,24.21
2018-09-04T12:44:05.355Z,24.06
2018-09-04T12:45:05.372Z,24.03
2018-09-04T12:46:05.375Z,24.06
2018-09-04T12:47:05.381Z,24.17
2018-09-04T12:48:05.448Z,24.23
2018-09-04T12:49:05.379Z,24.06
2018-09-04T12:50:05.394Z,24.20
2018-09-04T12:51:05.388Z,24.21
2018-09-04T12:52:05.419Z,24.21